Terminal Aerodrome Forecast
Issued by NWS Jackson, KY

Home | Current Version | Previous Version | Text Only | Print | Product List | Glossary On
Versions: 1 2 3 4 5 6 7 8 9 10 11 12 13 14
000
FTUS43 KJKL 020521
TAFLOZ
TAF
KLOZ 020521Z 0206/0306 VRB03KT P6SM SCT250
     FM021200 19008KT P6SM VCSH SCT060 OVC120
     FM021600 20011G22KT P6SM VCSH SCT060 OVC120=

USA.gov is the U.S. government's official web portal to all federal, state and local government web resources and services.